sensor_id;sensor_type;location;lat;lon;timestamp;temperature;humidity
19088;DHT22;9676;50.916;13.352;2023-08-07T00:00:33;18.30;95.70
19088;DHT22;9676;50.916;13.352;2023-08-07T00:03:22;18.20;95.80
19088;DHT22;9676;50.916;13.352;2023-08-07T00:06:13;18.30;96.00
19088;DHT22;9676;50.916;13.352;2023-08-07T00:09:02;18.30;96.60
19088;DHT22;9676;50.916;13.352;2023-08-07T00:11:52;18.30;96.30
19088;DHT22;9676;50.916;13.352;2023-08-07T00:14:42;18.30;96.40
19088;DHT22;9676;50.916;13.352;2023-08-07T00:17:31;18.30;96.50
19088;DHT22;9676;50.916;13.352;2023-08-07T00:20:21;18.30;96.40
19088;DHT22;9676;50.916;13.352;2023-08-07T00:23:12;18.40;96.30
19088;DHT22;9676;50.916;13.352;2023-08-07T00:26:01;18.40;96.90
19088;DHT22;9676;50.916;13.352;2023-08-07T00:28:51;18.30;96.90
19088;DHT22;9676;50.916;13.352;2023-08-07T00:31:40;18.30;96.80
19088;DHT22;9676;50.916;13.352;2023-08-07T00:34:30;18.30;97.00
19088;DHT22;9676;50.916;13.352;2023-08-07T00:37:19;18.30;97.00
19088;DHT22;9676;50.916;13.352;2023-08-07T00:40:11;18.30;97.20
19088;DHT22;9676;50.916;13.352;2023-08-07T00:43:00;18.30;97.70
19088;DHT22;9676;50.916;13.352;2023-08-07T00:45:50;18.30;97.40
19088;DHT22;9676;50.916;13.352;2023-08-07T00:48:39;18.30;97.50
19088;DHT22;9676;50.916;13.352;2023-08-07T00:51:29;18.30;97.60
19088;DHT22;9676;50.916;13.352;2023-08-07T00:54:19;18.30;97.50
19088;DHT22;9676;50.916;13.352;2023-08-07T00:57:12;18.30;97.80
19088;DHT22;9676;50.916;13.352;2023-08-07T01:00:03;18.30;97.80
19088;DHT22;9676;50.916;13.352;2023-08-07T01:02:56;18.30;97.70
19088;DHT22;9676;50.916;13.352;2023-08-07T01:05:46;18.30;97.80
19088;DHT22;9676;50.916;13.352;2023-08-07T01:08:35;18.30;97.50
19088;DHT22;9676;50.916;13.352;2023-08-07T01:11:32;18.30;97.50
19088;DHT22;9676;50.916;13.352;2023-08-07T01:14:33;18.30;98.30
19088;DHT22;9676;50.916;13.352;2023-08-07T01:17:26;18.30;98.00
19088;DHT22;9676;50.916;13.352;2023-08-07T01:20:16;18.30;97.50
19088;DHT22;9676;50.916;13.352;2023-08-07T01:23:07;18.30;97.70
19088;DHT22;9676;50.916;13.352;2023-08-07T01:25:56;18.30;98.00
19088;DHT22;9676;50.916;13.352;2023-08-07T01:28:50;18.30;97.80
19088;DHT22;9676;50.916;13.352;2023-08-07T01:31:45;18.30;98.30
19088;DHT22;9676;50.916;13.352;2023-08-07T01:34:41;18.30;98.10
19088;DHT22;9676;50.916;13.352;2023-08-07T01:37:33;18.30;98.30
19088;DHT22;9676;50.916;13.352;2023-08-07T01:40:25;18.40;98.10
19088;DHT22;9676;50.916;13.352;2023-08-07T01:43:16;18.30;98.20
19088;DHT22;9676;50.916;13.352;2023-08-07T01:46:06;18.30;98.20
19088;DHT22;9676;50.916;13.352;2023-08-07T01:48:57;18.30;98.20
19088;DHT22;9676;50.916;13.352;2023-08-07T01:51:46;18.30;98.30
19088;DHT22;9676;50.916;13.352;2023-08-07T01:54:36;18.30;98.40
19088;DHT22;9676;50.916;13.352;2023-08-07T01:57:26;18.30;98.50
19088;DHT22;9676;50.916;13.352;2023-08-07T02:00:16;18.30;98.80
19088;DHT22;9676;50.916;13.352;2023-08-07T02:03:06;18.30;98.50
19088;DHT22;9676;50.916;13.352;2023-08-07T02:05:56;18.30;98.50
19088;DHT22;9676;50.916;13.352;2023-08-07T02:08:45;18.30;98.50
19088;DHT22;9676;50.916;13.352;2023-08-07T02:11:35;18.30;98.60
19088;DHT22;9676;50.916;13.352;2023-08-07T02:14:26;18.30;98.70
19088;DHT22;9676;50.916;13.352;2023-08-07T02:17:16;18.30;99.10
19088;DHT22;9676;50.916;13.352;2023-08-07T02:20:06;18.30;98.80
19088;DHT22;9676;50.916;13.352;2023-08-07T02:22:56;18.30;98.90
19088;DHT22;9676;50.916;13.352;2023-08-07T02:25:48;18.30;99.00
19088;DHT22;9676;50.916;13.352;2023-08-07T02:28:37;18.30;99.20
19088;DHT22;9676;50.916;13.352;2023-08-07T02:31:28;18.30;99.30
19088;DHT22;9676;50.916;13.352;2023-08-07T02:34:18;18.30;99.50
19088;DHT22;9676;50.916;13.352;2023-08-07T02:37:07;18.30;99.30
19088;DHT22;9676;50.916;13.352;2023-08-07T02:39:57;18.30;99.30
19088;DHT22;9676;50.916;13.352;2023-08-07T02:42:46;18.30;99.40
19088;DHT22;9676;50.916;13.352;2023-08-07T02:45:35;18.30;99.30
19088;DHT22;9676;50.916;13.352;2023-08-07T02:48:26;18.30;99.30
19088;DHT22;9676;50.916;13.352;2023-08-07T02:51:15;18.20;99.60
19088;DHT22;9676;50.916;13.352;2023-08-07T02:54:05;18.20;99.30
19088;DHT22;9676;50.916;13.352;2023-08-07T02:56:55;18.10;99.50
19088;DHT22;9676;50.916;13.352;2023-08-07T02:59:45;18.10;99.50
19088;DHT22;9676;50.916;13.352;2023-08-07T03:02:34;18.00;99.60
19088;DHT22;9676;50.916;13.352;2023-08-07T03:05:25;17.90;99.80
19088;DHT22;9676;50.916;13.352;2023-08-07T03:08:15;17.90;99.90
19088;DHT22;9676;50.916;13.352;2023-08-07T03:11:04;17.80;99.90
19088;DHT22;9676;50.916;13.352;2023-08-07T03:13:54;17.80;99.90
19088;DHT22;9676;50.916;13.352;2023-08-07T03:16:45;17.80;99.90
19088;DHT22;9676;50.916;13.352;2023-08-07T03:19:35;17.80;99.90
19088;DHT22;9676;50.916;13.352;2023-08-07T03:22:26;17.70;99.90
19088;DHT22;9676;50.916;13.352;2023-08-07T03:25:15;17.70;99.90
19088;DHT22;9676;50.916;13.352;2023-08-07T03:28:05;17.70;99.90
19088;DHT22;9676;50.916;13.352;2023-08-07T03:30:54;17.70;99.90
19088;DHT22;9676;50.916;13.352;2023-08-07T03:33:45;17.60;99.90
19088;DHT22;9676;50.916;13.352;2023-08-07T03:36:36;17.60;99.90
19088;DHT22;9676;50.916;13.352;2023-08-07T03:39:27;17.60;99.90
19088;DHT22;9676;50.916;13.352;2023-08-07T03:42:16;17.60;99.90
19088;DHT22;9676;50.916;13.352;2023-08-07T03:45:08;17.60;99.90
19088;DHT22;9676;50.916;13.352;2023-08-07T03:47:59;17.50;99.90
19088;DHT22;9676;50.916;13.352;2023-08-07T03:50:49;17.50;99.90
19088;DHT22;9676;50.916;13.352;2023-08-07T03:53:39;17.60;99.90
19088;DHT22;9676;50.916;13.352;2023-08-07T03:56:29;17.50;99.90
19088;DHT22;9676;50.916;13.352;2023-08-07T03:59:24;17.50;99.90
19088;DHT22;9676;50.916;13.352;2023-08-07T04:02:13;17.50;99.90
19088;DHT22;9676;50.916;13.352;2023-08-07T04:05:03;17.50;99.90
19088;DHT22;9676;50.916;13.352;2023-08-07T04:07:53;17.50;99.90
19088;DHT22;9676;50.916;13.352;2023-08-07T04:10:44;17.50;99.90
19088;DHT22;9676;50.916;13.352;2023-08-07T04:13:34;17.60;99.90
19088;DHT22;9676;50.916;13.352;2023-08-07T04:16:24;17.60;99.90
19088;DHT22;9676;50.916;13.352;2023-08-07T04:19:13;17.60;99.90
19088;DHT22;9676;50.916;13.352;2023-08-07T04:22:03;17.60;99.90
19088;DHT22;9676;50.916;13.352;2023-08-07T04:24:53;17.70;99.90
19088;DHT22;9676;50.916;13.352;2023-08-07T04:27:42;17.70;99.90
19088;DHT22;9676;50.916;13.352;2023-08-07T04:30:33;17.70;99.90
19088;DHT22;9676;50.916;13.352;2023-08-07T04:33:22;17.70;99.90
19088;DHT22;9676;50.916;13.352;2023-08-07T04:36:12;17.70;99.90
19088;DHT22;9676;50.916;13.352;2023-08-07T04:39:01;17.70;99.90
19088;DHT22;9676;50.916;13.352;2023-08-07T04:41:51;17.70;99.90
19088;DHT22;9676;50.916;13.352;2023-08-07T04:44:40;17.80;99.90
19088;DHT22;9676;50.916;13.352;2023-08-07T04:47:31;17.80;99.90
19088;DHT22;9676;50.916;13.352;2023-08-07T04:50:20;17.80;99.90
19088;DHT22;9676;50.916;13.352;2023-08-07T04:53:10;17.90;99.90
19088;DHT22;9676;50.916;13.352;2023-08-07T04:55:59;17.90;99.90
19088;DHT22;9676;50.916;13.352;2023-08-07T04:58:49;17.90;99.90
19088;DHT22;9676;50.916;13.352;2023-08-07T05:01:38;18.00;99.90
19088;DHT22;9676;50.916;13.352;2023-08-07T05:04:29;18.00;99.90
19088;DHT22;9676;50.916;13.352;2023-08-07T05:07:18;18.00;99.90
19088;DHT22;9676;50.916;13.352;2023-08-07T05:10:09;18.00;99.90
19088;DHT22;9676;50.916;13.352;2023-08-07T05:12:58;18.00;99.90
19088;DHT22;9676;50.916;13.352;2023-08-07T05:15:48;18.00;99.90
19088;DHT22;9676;50.916;13.352;2023-08-07T05:18:37;18.00;99.90
19088;DHT22;9676;50.916;13.352;2023-08-07T05:21:28;18.00;99.90
19088;DHT22;9676;50.916;13.352;2023-08-07T05:24:18;18.00;99.90
19088;DHT22;9676;50.916;13.352;2023-08-07T05:27:08;18.00;99.90
19088;DHT22;9676;50.916;13.352;2023-08-07T05:29:59;18.00;99.90
19088;DHT22;9676;50.916;13.352;2023-08-07T05:32:48;18.00;99.90
19088;DHT22;9676;50.916;13.352;2023-08-07T05:35:38;17.90;99.90
19088;DHT22;9676;50.916;13.352;2023-08-07T05:38:29;17.80;99.90
19088;DHT22;9676;50.916;13.352;2023-08-07T05:41:18;17.80;99.90
19088;DHT22;9676;50.916;13.352;2023-08-07T05:44:08;17.80;99.90
19088;DHT22;9676;50.916;13.352;2023-08-07T05:46:57;17.70;99.90
19088;DHT22;9676;50.916;13.352;2023-08-07T05:49:47;17.70;99.90
19088;DHT22;9676;50.916;13.352;2023-08-07T05:52:36;17.70;99.90
19088;DHT22;9676;50.916;13.352;2023-08-07T05:55:27;17.60;99.90
19088;DHT22;9676;50.916;13.352;2023-08-07T05:58:16;17.60;99.90
19088;DHT22;9676;50.916;13.352;2023-08-07T06:01:06;17.50;99.90
19088;DHT22;9676;50.916;13.352;2023-08-07T06:03:56;17.50;99.90
19088;DHT22;9676;50.916;13.352;2023-08-07T06:06:45;17.50;99.90
19088;DHT22;9676;50.916;13.352;2023-08-07T06:09:35;17.60;99.90
19088;DHT22;9676;50.916;13.352;2023-08-07T06:12:26;17.60;99.90
19088;DHT22;9676;50.916;13.352;2023-08-07T06:15:16;17.70;99.90
19088;DHT22;9676;50.916;13.352;2023-08-07T06:18:05;17.70;99.90
19088;DHT22;9676;50.916;13.352;2023-08-07T06:20:54;17.80;99.90
19088;DHT22;9676;50.916;13.352;2023-08-07T06:23:44;17.80;99.90
19088;DHT22;9676;50.916;13.352;2023-08-07T06:26:34;17.90;99.90
19088;DHT22;9676;50.916;13.352;2023-08-07T06:29:25;18.00;99.90
19088;DHT22;9676;50.916;13.352;2023-08-07T06:32:15;18.00;99.90
19088;DHT22;9676;50.916;13.352;2023-08-07T06:35:06;18.10;99.90
19088;DHT22;9676;50.916;13.352;2023-08-07T06:37:56;18.20;99.90
19088;DHT22;9676;50.916;13.352;2023-08-07T06:40:45;18.30;99.90
19088;DHT22;9676;50.916;13.352;2023-08-07T06:43:35;18.30;99.90
19088;DHT22;9676;50.916;13.352;2023-08-07T06:46:25;18.40;99.90
19088;DHT22;9676;50.916;13.352;2023-08-07T06:49:15;18.50;99.90
19088;DHT22;9676;50.916;13.352;2023-08-07T06:52:06;18.50;99.90
19088;DHT22;9676;50.916;13.352;2023-08-07T06:54:55;18.60;99.90
19088;DHT22;9676;50.916;13.352;2023-08-07T06:57:44;18.70;99.90
19088;DHT22;9676;50.916;13.352;2023-08-07T07:00:34;18.70;99.90
19088;DHT22;9676;50.916;13.352;2023-08-07T07:03:25;18.80;99.90
19088;DHT22;9676;50.916;13.352;2023-08-07T07:06:14;18.80;99.90
19088;DHT22;9676;50.916;13.352;2023-08-07T07:09:04;18.80;99.90
19088;DHT22;9676;50.916;13.352;2023-08-07T07:11:53;18.80;99.90
19088;DHT22;9676;50.916;13.352;2023-08-07T07:14:43;18.90;99.90
19088;DHT22;9676;50.916;13.352;2023-08-07T07:17:32;18.90;99.90
19088;DHT22;9676;50.916;13.352;2023-08-07T07:20:23;18.90;99.90
19088;DHT22;9676;50.916;13.352;2023-08-07T07:23:14;18.90;99.90
19088;DHT22;9676;50.916;13.352;2023-08-07T07:26:03;18.90;99.90
19088;DHT22;9676;50.916;13.352;2023-08-07T07:28:53;18.90;99.90
19088;DHT22;9676;50.916;13.352;2023-08-07T07:31:43;19.00;99.90
19088;DHT22;9676;50.916;13.352;2023-08-07T07:34:32;19.00;99.90
19088;DHT22;9676;50.916;13.352;2023-08-07T07:37:23;19.10;99.90
19088;DHT22;9676;50.916;13.352;2023-08-07T07:40:12;19.20;99.90
19088;DHT22;9676;50.916;13.352;2023-08-07T07:43:02;19.30;99.90
19088;DHT22;9676;50.916;13.352;2023-08-07T07:45:51;19.40;99.90
19088;DHT22;9676;50.916;13.352;2023-08-07T07:48:41;19.40;99.90
19088;DHT22;9676;50.916;13.352;2023-08-07T07:51:31;19.50;99.90
19088;DHT22;9676;50.916;13.352;2023-08-07T07:54:22;19.60;99.90
19088;DHT22;9676;50.916;13.352;2023-08-07T07:57:12;19.60;99.90
19088;DHT22;9676;50.916;13.352;2023-08-07T08:00:01;19.70;99.90
19088;DHT22;9676;50.916;13.352;2023-08-07T08:03:15;19.60;99.90
19088;DHT22;9676;50.916;13.352;2023-08-07T08:06:05;19.70;99.90
19088;DHT22;9676;50.916;13.352;2023-08-07T08:08:54;19.70;99.90
19088;DHT22;9676;50.916;13.352;2023-08-07T08:11:45;19.70;99.90
19088;DHT22;9676;50.916;13.352;2023-08-07T08:14:34;19.70;99.90
19088;DHT22;9676;50.916;13.352;2023-08-07T08:17:41;19.80;99.90
19088;DHT22;9676;50.916;13.352;2023-08-07T08:20:31;19.90;99.90
19088;DHT22;9676;50.916;13.352;2023-08-07T08:23:21;20.00;99.90
19088;DHT22;9676;50.916;13.352;2023-08-07T08:26:10;20.10;99.90
19088;DHT22;9676;50.916;13.352;2023-08-07T08:29:01;20.10;99.90
19088;DHT22;9676;50.916;13.352;2023-08-07T08:31:52;20.20;99.90
19088;DHT22;9676;50.916;13.352;2023-08-07T08:34:42;20.20;99.90
19088;DHT22;9676;50.916;13.352;2023-08-07T08:37:31;20.30;99.90
19088;DHT22;9676;50.916;13.352;2023-08-07T08:40:21;20.40;99.90
19088;DHT22;9676;50.916;13.352;2023-08-07T08:43:12;20.50;99.90
19088;DHT22;9676;50.916;13.352;2023-08-07T08:46:04;20.60;99.90
19088;DHT22;9676;50.916;13.352;2023-08-07T08:48:57;20.80;99.90
19088;DHT22;9676;50.916;13.352;2023-08-07T08:51:47;21.00;99.90
19088;DHT22;9676;50.916;13.352;2023-08-07T08:54:38;21.20;99.90
19088;DHT22;9676;50.916;13.352;2023-08-07T08:57:28;21.40;99.90
19088;DHT22;9676;50.916;13.352;2023-08-07T09:00:18;21.60;99.90
19088;DHT22;9676;50.916;13.352;2023-08-07T09:03:11;21.70;99.90
19088;DHT22;9676;50.916;13.352;2023-08-07T09:06:01;21.70;97.90
19088;DHT22;9676;50.916;13.352;2023-08-07T09:08:51;21.70;97.70
19088;DHT22;9676;50.916;13.352;2023-08-07T09:11:40;21.60;96.70
19088;DHT22;9676;50.916;13.352;2023-08-07T09:14:33;21.60;96.40
19088;DHT22;9676;50.916;13.352;2023-08-07T09:17:28;21.50;96.00
19088;DHT22;9676;50.916;13.352;2023-08-07T09:20:20;21.40;97.70
19088;DHT22;9676;50.916;13.352;2023-08-07T09:23:11;21.50;99.70
19088;DHT22;9676;50.916;13.352;2023-08-07T09:26:01;21.60;99.90
19088;DHT22;9676;50.916;13.352;2023-08-07T09:28:52;21.80;99.90
19088;DHT22;9676;50.916;13.352;2023-08-07T09:31:43;22.10;99.90
19088;DHT22;9676;50.916;13.352;2023-08-07T09:34:34;22.30;99.90
19088;DHT22;9676;50.916;13.352;2023-08-07T09:37:25;22.60;99.90
19088;DHT22;9676;50.916;13.352;2023-08-07T09:40:15;22.90;99.50
19088;DHT22;9676;50.916;13.352;2023-08-07T09:43:04;23.00;98.40
19088;DHT22;9676;50.916;13.352;2023-08-07T09:46:02;23.20;99.10
19088;DHT22;9676;50.916;13.352;2023-08-07T09:48:57;23.40;97.70
19088;DHT22;9676;50.916;13.352;2023-08-07T09:51:47;23.60;98.40
19088;DHT22;9676;50.916;13.352;2023-08-07T09:54:39;24.10;99.90
19088;DHT22;9676;50.916;13.352;2023-08-07T09:57:30;24.60;99.90
19088;DHT22;9676;50.916;13.352;2023-08-07T10:00:20;25.30;99.90
19088;DHT22;9676;50.916;13.352;2023-08-07T10:03:10;26.10;99.90
19088;DHT22;9676;50.916;13.352;2023-08-07T10:06:00;26.60;98.30
19088;DHT22;9676;50.916;13.352;2023-08-07T10:08:50;26.90;92.80
19088;DHT22;9676;50.916;13.352;2023-08-07T10:11:42;27.00;90.00
19088;DHT22;9676;50.916;13.352;2023-08-07T10:14:31;26.90;85.00
19088;DHT22;9676;50.916;13.352;2023-08-07T10:17:21;26.70;84.50
19088;DHT22;9676;50.916;13.352;2023-08-07T10:20:11;26.60;83.70
19088;DHT22;9676;50.916;13.352;2023-08-07T10:23:07;26.50;83.50
19088;DHT22;9676;50.916;13.352;2023-08-07T10:25:59;26.40;80.40
19088;DHT22;9676;50.916;13.352;2023-08-07T10:28:52;26.30;81.40
19088;DHT22;9676;50.916;13.352;2023-08-07T10:31:43;26.20;80.10
19088;DHT22;9676;50.916;13.352;2023-08-07T10:34:34;26.10;80.80
19088;DHT22;9676;50.916;13.352;2023-08-07T10:37:32;26.00;80.30
19088;DHT22;9676;50.916;13.352;2023-08-07T10:40:27;25.90;77.90
19088;DHT22;9676;50.916;13.352;2023-08-07T10:43:18;25.80;76.70
19088;DHT22;9676;50.916;13.352;2023-08-07T10:46:10;25.60;75.20
19088;DHT22;9676;50.916;13.352;2023-08-07T10:49:00;25.30;74.50
19088;DHT22;9676;50.916;13.352;2023-08-07T10:51:52;24.90;73.50
19088;DHT22;9676;50.916;13.352;2023-08-07T10:54:48;24.50;73.70
19088;DHT22;9676;50.916;13.352;2023-08-07T10:57:40;24.20;74.50
19088;DHT22;9676;50.916;13.352;2023-08-07T11:00:29;23.90;75.90
19088;DHT22;9676;50.916;13.352;2023-08-07T11:03:27;23.70;78.80
19088;DHT22;9676;50.916;13.352;2023-08-07T11:06:17;23.70;81.50
19088;DHT22;9676;50.916;13.352;2023-08-07T11:09:08;23.80;84.60
19088;DHT22;9676;50.916;13.352;2023-08-07T11:11:59;23.90;85.30
19088;DHT22;9676;50.916;13.352;2023-08-07T11:14:48;24.10;86.80
19088;DHT22;9676;50.916;13.352;2023-08-07T11:17:37;24.30;86.00
19088;DHT22;9676;50.916;13.352;2023-08-07T11:20:30;24.50;82.60
19088;DHT22;9676;50.916;13.352;2023-08-07T11:23:23;24.50;81.20
19088;DHT22;9676;50.916;13.352;2023-08-07T11:26:13;24.50;82.40
19088;DHT22;9676;50.916;13.352;2023-08-07T11:29:02;24.50;82.80
19088;DHT22;9676;50.916;13.352;2023-08-07T11:31:52;24.60;80.50
19088;DHT22;9676;50.916;13.352;2023-08-07T11:34:48;24.40;78.70
19088;DHT22;9676;50.916;13.352;2023-08-07T11:37:46;24.20;79.20
19088;DHT22;9676;50.916;13.352;2023-08-07T11:40:36;23.90;78.40
19088;DHT22;9676;50.916;13.352;2023-08-07T11:43:27;23.70;79.20
19088;DHT22;9676;50.916;13.352;2023-08-07T11:46:17;23.60;80.90
19088;DHT22;9676;50.916;13.352;2023-08-07T11:49:07;23.50;82.70
19088;DHT22;9676;50.916;13.352;2023-08-07T11:51:57;23.50;82.80
19088;DHT22;9676;50.916;13.352;2023-08-07T11:54:49;23.50;83.20
19088;DHT22;9676;50.916;13.352;2023-08-07T11:57:38;23.60;83.50
19088;DHT22;9676;50.916;13.352;2023-08-07T12:00:31;23.60;82.80
19088;DHT22;9676;50.916;13.352;2023-08-07T12:03:24;23.70;82.50
19088;DHT22;9676;50.916;13.352;2023-08-07T12:06:15;23.70;81.50
19088;DHT22;9676;50.916;13.352;2023-08-07T12:09:05;23.60;80.00
19088;DHT22;9676;50.916;13.352;2023-08-07T12:12:02;23.50;79.70
19088;DHT22;9676;50.916;13.352;2023-08-07T12:14:54;23.40;80.90
19088;DHT22;9676;50.916;13.352;2023-08-07T12:17:43;23.30;81.70
19088;DHT22;9676;50.916;13.352;2023-08-07T12:20:33;23.20;83.10
19088;DHT22;9676;50.916;13.352;2023-08-07T12:23:24;23.30;83.90
19088;DHT22;9676;50.916;13.352;2023-08-07T12:26:13;23.40;84.40
19088;DHT22;9676;50.916;13.352;2023-08-07T12:29:04;23.40;84.70
19088;DHT22;9676;50.916;13.352;2023-08-07T12:31:54;23.50;85.20
19088;DHT22;9676;50.916;13.352;2023-08-07T12:34:43;23.60;85.30
19088;DHT22;9676;50.916;13.352;2023-08-07T12:37:36;23.70;84.50
19088;DHT22;9676;50.916;13.352;2023-08-07T12:40:25;23.80;82.50
19088;DHT22;9676;50.916;13.352;2023-08-07T12:43:17;23.70;81.20
19088;DHT22;9676;50.916;13.352;2023-08-07T12:46:08;23.60;80.50
19088;DHT22;9676;50.916;13.352;2023-08-07T12:49:00;23.50;80.80
19088;DHT22;9676;50.916;13.352;2023-08-07T12:51:50;23.40;81.50
19088;DHT22;9676;50.916;13.352;2023-08-07T12:54:41;23.40;82.30
19088;DHT22;9676;50.916;13.352;2023-08-07T12:57:30;23.40;83.60
19088;DHT22;9676;50.916;13.352;2023-08-07T13:00:20;23.40;83.90
19088;DHT22;9676;50.916;13.352;2023-08-07T13:03:10;23.40;84.10
19088;DHT22;9676;50.916;13.352;2023-08-07T13:06:00;23.50;83.20
19088;DHT22;9676;50.916;13.352;2023-08-07T13:08:53;23.50;82.80
19088;DHT22;9676;50.916;13.352;2023-08-07T13:11:44;23.50;82.20
19088;DHT22;9676;50.916;13.352;2023-08-07T13:14:33;23.50;81.60
19088;DHT22;9676;50.916;13.352;2023-08-07T13:17:22;23.40;79.90
19088;DHT22;9676;50.916;13.352;2023-08-07T13:20:14;23.40;79.00
19088;DHT22;9676;50.916;13.352;2023-08-07T13:23:03;23.20;78.90
19088;DHT22;9676;50.916;13.352;2023-08-07T13:25:54;23.10;79.10
19088;DHT22;9676;50.916;13.352;2023-08-07T13:28:43;23.10;79.90
19088;DHT22;9676;50.916;13.352;2023-08-07T13:31:33;23.00;80.40
19088;DHT22;9676;50.916;13.352;2023-08-07T13:34:22;23.00;80.90
19088;DHT22;9676;50.916;13.352;2023-08-07T13:37:13;23.10;81.70
19088;DHT22;9676;50.916;13.352;2023-08-07T13:40:04;23.10;82.00
19088;DHT22;9676;50.916;13.352;2023-08-07T13:42:54;23.20;82.60
19088;DHT22;9676;50.916;13.352;2023-08-07T13:45:44;23.30;82.70
19088;DHT22;9676;50.916;13.352;2023-08-07T13:48:33;23.40;82.80
19088;DHT22;9676;50.916;13.352;2023-08-07T13:51:22;23.50;82.40
19088;DHT22;9676;50.916;13.352;2023-08-07T13:54:13;23.60;81.90
19088;DHT22;9676;50.916;13.352;2023-08-07T13:57:03;23.70;80.20
19088;DHT22;9676;50.916;13.352;2023-08-07T13:59:53;23.70;79.50
19088;DHT22;9676;50.916;13.352;2023-08-07T14:02:43;23.70;78.50
19088;DHT22;9676;50.916;13.352;2023-08-07T14:05:33;23.60;76.60
19088;DHT22;9676;50.916;13.352;2023-08-07T14:08:26;23.50;75.40
19088;DHT22;9676;50.916;13.352;2023-08-07T14:11:17;23.20;74.20
19088;DHT22;9676;50.916;13.352;2023-08-07T14:14:07;22.80;74.20
19088;DHT22;9676;50.916;13.352;2023-08-07T14:16:57;22.50;74.30
19088;DHT22;9676;50.916;13.352;2023-08-07T14:19:48;22.20;75.80
19088;DHT22;9676;50.916;13.352;2023-08-07T14:22:37;21.90;76.20
19088;DHT22;9676;50.916;13.352;2023-08-07T14:25:29;21.60;77.00
19088;DHT22;9676;50.916;13.352;2023-08-07T14:28:19;21.40;78.10
19088;DHT22;9676;50.916;13.352;2023-08-07T14:31:09;21.40;80.00
19088;DHT22;9676;50.916;13.352;2023-08-07T14:33:59;21.30;81.30
19088;DHT22;9676;50.916;13.352;2023-08-07T14:36:48;21.30;81.90
19088;DHT22;9676;50.916;13.352;2023-08-07T14:39:38;21.30;82.00
19088;DHT22;9676;50.916;13.352;2023-08-07T14:42:27;21.40;82.10
19088;DHT22;9676;50.916;13.352;2023-08-07T14:45:18;21.30;81.80
19088;DHT22;9676;50.916;13.352;2023-08-07T14:48:09;21.30;82.20
19088;DHT22;9676;50.916;13.352;2023-08-07T14:50:58;21.20;82.20
19088;DHT22;9676;50.916;13.352;2023-08-07T14:53:48;21.10;83.10
19088;DHT22;9676;50.916;13.352;2023-08-07T14:56:37;21.10;84.00
19088;DHT22;9676;50.916;13.352;2023-08-07T14:59:26;21.10;84.50
19088;DHT22;9676;50.916;13.352;2023-08-07T15:02:17;21.10;84.80
19088;DHT22;9676;50.916;13.352;2023-08-07T15:05:07;21.10;84.80
19088;DHT22;9676;50.916;13.352;2023-08-07T15:07:56;21.10;85.00
19088;DHT22;9676;50.916;13.352;2023-08-07T15:10:46;21.10;85.60
19088;DHT22;9676;50.916;13.352;2023-08-07T15:13:35;21.10;86.60
19088;DHT22;9676;50.916;13.352;2023-08-07T15:16:25;21.20;87.10
19088;DHT22;9676;50.916;13.352;2023-08-07T15:19:16;21.20;86.90
19088;DHT22;9676;50.916;13.352;2023-08-07T15:22:05;21.30;87.10
19088;DHT22;9676;50.916;13.352;2023-08-07T15:24:55;21.30;87.00
19088;DHT22;9676;50.916;13.352;2023-08-07T15:27:44;21.40;86.50
19088;DHT22;9676;50.916;13.352;2023-08-07T15:30:34;21.40;86.00
19088;DHT22;9676;50.916;13.352;2023-08-07T15:33:23;21.40;86.10
19088;DHT22;9676;50.916;13.352;2023-08-07T15:36:14;21.30;86.10
19088;DHT22;9676;50.916;13.352;2023-08-07T15:39:03;21.30;86.40
19088;DHT22;9676;50.916;13.352;2023-08-07T15:41:53;21.40;87.00
19088;DHT22;9676;50.916;13.352;2023-08-07T15:44:43;21.40;87.00
19088;DHT22;9676;50.916;13.352;2023-08-07T15:47:32;21.40;86.60
19088;DHT22;9676;50.916;13.352;2023-08-07T15:50:22;21.40;86.20
19088;DHT22;9676;50.916;13.352;2023-08-07T15:53:13;21.40;86.40
19088;DHT22;9676;50.916;13.352;2023-08-07T15:56:02;21.40;86.10
19088;DHT22;9676;50.916;13.352;2023-08-07T15:58:52;21.40;86.30
19088;DHT22;9676;50.916;13.352;2023-08-07T16:01:41;21.30;85.20
19088;DHT22;9676;50.916;13.352;2023-08-07T16:04:31;21.30;84.70
19088;DHT22;9676;50.916;13.352;2023-08-07T16:07:20;21.30;84.10
19088;DHT22;9676;50.916;13.352;2023-08-07T16:10:11;21.20;83.80
19088;DHT22;9676;50.916;13.352;2023-08-07T16:13:01;21.10;83.70
19088;DHT22;9676;50.916;13.352;2023-08-07T16:15:50;21.10;83.40
19088;DHT22;9676;50.916;13.352;2023-08-07T16:18:40;21.00;83.20
19088;DHT22;9676;50.916;13.352;2023-08-07T16:21:29;20.90;82.80
19088;DHT22;9676;50.916;13.352;2023-08-07T16:24:19;20.80;82.90
19088;DHT22;9676;50.916;13.352;2023-08-07T16:27:10;20.70;82.90
19088;DHT22;9676;50.916;13.352;2023-08-07T16:30:01;20.70;83.60
19088;DHT22;9676;50.916;13.352;2023-08-07T16:32:52;20.60;84.10
19088;DHT22;9676;50.916;13.352;2023-08-07T16:35:41;20.60;84.60
19088;DHT22;9676;50.916;13.352;2023-08-07T16:38:31;20.50;84.80
19088;DHT22;9676;50.916;13.352;2023-08-07T16:41:20;20.60;84.90
19088;DHT22;9676;50.916;13.352;2023-08-07T16:44:11;20.50;84.40
19088;DHT22;9676;50.916;13.352;2023-08-07T16:47:00;20.40;83.80
19088;DHT22;9676;50.916;13.352;2023-08-07T16:49:50;20.40;83.50
19088;DHT22;9676;50.916;13.352;2023-08-07T16:52:39;20.30;83.30
19088;DHT22;9676;50.916;13.352;2023-08-07T16:55:29;20.30;83.50
19088;DHT22;9676;50.916;13.352;2023-08-07T16:58:18;20.20;83.70
19088;DHT22;9676;50.916;13.352;2023-08-07T17:01:09;20.20;83.90
19088;DHT22;9676;50.916;13.352;2023-08-07T17:03:58;20.10;84.00
19088;DHT22;9676;50.916;13.352;2023-08-07T17:06:48;20.10;83.80
19088;DHT22;9676;50.916;13.352;2023-08-07T17:09:37;20.00;83.80
19088;DHT22;9676;50.916;13.352;2023-08-07T17:12:26;20.00;84.10
19088;DHT22;9676;50.916;13.352;2023-08-07T17:15:16;20.00;84.50
19088;DHT22;9676;50.916;13.352;2023-08-07T17:18:07;19.90;84.70
19088;DHT22;9676;50.916;13.352;2023-08-07T17:20:56;19.90;85.00
19088;DHT22;9676;50.916;13.352;2023-08-07T17:23:45;19.90;84.90
19088;DHT22;9676;50.916;13.352;2023-08-07T17:26:35;19.90;85.10
19088;DHT22;9676;50.916;13.352;2023-08-07T17:29:24;19.80;85.00
19088;DHT22;9676;50.916;13.352;2023-08-07T17:32:14;19.80;84.90
19088;DHT22;9676;50.916;13.352;2023-08-07T17:35:06;19.70;84.40
19088;DHT22;9676;50.916;13.352;2023-08-07T17:37:56;19.70;84.30
19088;DHT22;9676;50.916;13.352;2023-08-07T17:40:46;19.70;84.30
19088;DHT22;9676;50.916;13.352;2023-08-07T17:43:36;19.60;84.20
19088;DHT22;9676;50.916;13.352;2023-08-07T17:46:25;19.60;84.20
19088;DHT22;9676;50.916;13.352;2023-08-07T17:49:15;19.60;84.10
19088;DHT22;9676;50.916;13.352;2023-08-07T17:52:06;19.50;83.90
19088;DHT22;9676;50.916;13.352;2023-08-07T17:54:56;19.50;83.80